Time;durP1;ratioP1;P1;durP2;ratioP2;P2;SDS_P1;SDS_P2;PMS_P1;PMS_P2;Temp;Humidity;BMP_temperature;BMP_pressure;BME280_temperature;BME280_humidity;BME280_pressure;Samples;Min_cycle;Max_cycle;Signal;HPM_P1;HPM_P2
2021/07/02 00:01:38;;;;;;;11.50;10.90;;;24.00;90.80;;;;;;3534785;40;20534;-66
2021/07/02 00:04:06;;;;;;;12.13;11.33;;;24.00;90.80;;;;;;3534830;40;20570;-66
2021/07/02 00:06:34;;;;;;;12.33;11.63;;;24.00;90.70;;;;;;3533799;40;20492;-66
2021/07/02 00:09:02;;;;;;;11.90;11.30;;;24.00;90.70;;;;;;3534699;40;20740;-67
2021/07/02 00:11:29;;;;;;;11.67;10.77;;;24.00;90.70;;;;;;3534269;40;20470;-67
2021/07/02 00:13:56;;;;;;;12.83;11.87;;;24.00;90.60;;;;;;3534691;40;20475;-66
2021/07/02 00:16:24;;;;;;;12.60;11.80;;;24.00;90.60;;;;;;3534715;40;20483;-66
2021/07/02 00:18:54;;;;;;;11.03;10.53;;;24.00;90.60;;;;;;3524938;40;20479;-66
2021/07/02 00:21:22;;;;;;;12.53;11.63;;;23.90;90.50;;;;;;3535320;40;20490;-66
2021/07/02 00:23:50;;;;;;;11.83;11.13;;;24.00;90.60;;;;;;3525303;40;20471;-67
2021/07/02 00:26:19;;;;;;;13.00;12.00;;;24.00;90.60;;;;;;3534341;40;20490;-66
2021/07/02 00:29:11;;;;;;;12.30;11.60;;;23.90;90.50;;;;;;3534720;40;20482;-67
2021/07/02 00:31:39;;;;;;;11.30;10.70;;;23.90;90.50;;;;;;3524609;40;20522;-67
2021/07/02 00:34:06;;;;;;;12.00;11.10;;;23.90;90.50;;;;;;3534399;40;20485;-66
2021/07/02 00:36:33;;;;;;;11.33;10.73;;;24.00;90.50;;;;;;3526224;40;20558;-67
2021/07/02 00:39:02;;;;;;;11.73;10.93;;;24.00;90.50;;;;;;3536649;40;20494;-66
2021/07/02 00:41:30;;;;;;;12.47;11.77;;;24.00;90.50;;;;;;3537016;40;20479;-66
2021/07/02 00:43:58;;;;;;;12.20;11.50;;;23.90;90.50;;;;;;3525512;40;20491;-66
2021/07/02 00:46:25;;;;;;;12.73;11.90;;;23.90;90.50;;;;;;3525412;40;20515;-66
2021/07/02 00:48:53;;;;;;;12.87;12.07;;;23.90;90.50;;;;;;3526058;40;20776;-67
2021/07/02 00:51:21;;;;;;;13.30;12.30;;;23.90;90.50;;;;;;3526920;40;20478;-66
2021/07/02 00:53:49;;;;;;;12.03;11.33;;;23.90;90.80;;;;;;3526470;40;20498;-66
2021/07/02 00:56:20;;;;;;;12.40;11.70;;;23.90;90.50;;;;;;3525990;40;20480;-66
2021/07/02 00:58:49;;;;;;;12.73;11.83;;;23.90;90.50;;;;;;3526071;40;20507;-67
2021/07/02 01:01:20;;;;;;;12.27;11.47;;;23.90;90.50;;;;;;3525492;40;20839;-66
2021/07/02 01:03:50;;;;;;;12.37;11.67;;;23.90;90.50;;;;;;3526440;40;20563;-66
2021/07/02 01:06:20;;;;;;;12.30;11.60;;;23.90;90.50;;;;;;3525449;40;20491;-66
2021/07/02 01:08:48;;;;;;;13.03;12.30;;;23.90;90.40;;;;;;3526153;40;20502;-66
2021/07/02 01:11:16;;;;;;;11.97;11.27;;;23.90;90.40;;;;;;3525853;40;20566;-66
2021/07/02 01:13:44;;;;;;;12.17;11.43;;;23.90;90.40;;;;;;3526002;40;20472;-67
2021/07/02 01:16:12;;;;;;;11.70;11.00;;;23.90;90.40;;;;;;3526134;40;20461;-66
2021/07/02 01:18:40;;;;;;;13.03;12.20;;;23.90;90.40;;;;;;3526226;40;20961;-66
2021/07/02 01:21:14;;;;;;;12.17;11.33;;;23.90;90.40;;;;;;3526191;40;20872;-66
2021/07/02 01:23:44;;;;;;;11.53;10.93;;;23.90;90.40;;;;;;3525337;40;21237;-67
2021/07/02 01:26:13;;;;;;;11.60;11.00;;;23.90;90.40;;;;;;3525250;40;20471;-66
2021/07/02 01:28:40;;;;;;;11.87;11.17;;;23.90;90.40;;;;;;3525243;40;20516;-67
2021/07/02 01:31:09;;;;;;;12.67;11.77;;;23.90;90.40;;;;;;3525501;40;20499;-66
2021/07/02 01:33:36;;;;;;;12.23;11.53;;;23.90;90.40;;;;;;3526336;40;20558;-67
2021/07/02 01:36:06;;;;;;;12.53;11.73;;;23.90;90.70;;;;;;3526019;40;20483;-67
2021/07/02 01:38:36;;;;;;;12.47;11.67;;;23.90;90.40;;;;;;3525061;40;20468;-66
2021/07/02 01:41:03;;;;;;;12.50;11.40;;;23.90;90.40;;;;;;3525039;40;21285;-67
2021/07/02 01:43:31;;;;;;;11.70;11.00;;;23.90;90.40;;;;;;3531295;40;20490;-66
2021/07/02 01:46:00;;;;;;;13.37;12.10;;;23.90;90.40;;;;;;3526756;40;20462;-66
2021/07/02 01:48:28;;;;;;;11.60;10.90;;;23.90;90.40;;;;;;3535396;40;20545;-66
2021/07/02 01:50:57;;;;;;;12.57;11.87;;;23.90;90.40;;;;;;3527281;40;20727;-66
2021/07/02 01:53:24;;;;;;;12.17;11.27;;;23.90;90.40;;;;;;3527020;40;20490;-66
2021/07/02 01:55:53;;;;;;;12.40;11.70;;;23.90;90.40;;;;;;3536107;40;20475;-66
2021/07/02 01:58:20;;;;;;;11.70;10.90;;;23.90;90.40;;;;;;3535104;40;21073;-66
2021/07/02 02:00:58;;;;;;;13.10;12.30;;;23.90;90.40;;;;;;3535181;40;20471;-66
2021/07/02 02:03:25;;;;;;;11.70;11.03;;;23.90;90.40;;;;;;3535622;40;20769;-67
2021/07/02 02:05:52;;;;;;;12.03;11.23;;;23.90;90.50;;;;;;3535592;40;20580;-67
2021/07/02 02:08:20;;;;;;;12.63;11.93;;;23.90;90.40;;;;;;3536092;40;20474;-66
2021/07/02 02:10:51;;;;;;;12.60;11.67;;;23.90;90.40;;;;;;3526611;40;20496;-66
2021/07/02 02:13:21;;;;;;;13.00;12.13;;;23.90;90.40;;;;;;3526878;40;20474;-66
2021/07/02 02:15:55;;;;;;;12.50;11.80;;;23.90;90.40;;;;;;3527890;40;20480;-66
2021/07/02 02:18:22;;;;;;;12.93;12.10;;;23.90;90.40;;;;;;3536621;40;20471;-66
2021/07/02 02:20:52;;;;;;;12.97;12.07;;;23.90;90.40;;;;;;3527411;40;20486;-66
2021/07/02 02:23:20;;;;;;;11.90;11.30;;;23.90;90.40;;;;;;3526888;40;20559;-67
2021/07/02 02:25:47;;;;;;;12.50;11.70;;;23.90;90.40;;;;;;3536117;40;20478;-66
2021/07/02 02:28:16;;;;;;;12.73;12.03;;;23.90;90.30;;;;;;3526911;40;20550;-67
2021/07/02 02:30:44;;;;;;;12.00;11.40;;;23.90;90.30;;;;;;3536068;40;20470;-67
2021/07/02 02:33:12;;;;;;;13.50;12.40;;;23.90;90.30;;;;;;3526142;40;21002;-67
2021/07/02 02:35:40;;;;;;;13.30;12.50;;;23.90;90.30;;;;;;3527142;40;20506;-67
2021/07/02 02:38:08;;;;;;;12.93;12.13;;;23.90;90.30;;;;;;3526555;40;20475;-67
2021/07/02 02:40:36;;;;;;;12.00;11.40;;;23.80;90.20;;;;;;3535179;40;20475;-66
2021/07/02 02:43:03;;;;;;;14.20;13.23;;;23.80;90.20;;;;;;3524757;40;20598;-67
2021/07/02 02:45:33;;;;;;;13.97;12.90;;;23.80;90.20;;;;;;3524218;40;20583;-66
2021/07/02 02:48:01;;;;;;;14.03;13.13;;;23.90;90.30;;;;;;3526343;40;20468;-67
2021/07/02 02:50:29;;;;;;;13.00;12.30;;;23.80;90.20;;;;;;3525420;40;20494;-67
2021/07/02 02:52:56;;;;;;;12.97;12.17;;;23.80;90.20;;;;;;3525644;40;20480;-66
2021/07/02 02:55:24;;;;;;;12.83;12.03;;;23.90;90.30;;;;;;3524945;40;20476;-67
2021/07/02 02:57:53;;;;;;;12.80;12.10;;;23.80;90.20;;;;;;3526045;40;21181;-66
2021/07/02 03:00:20;;;;;;;13.00;12.30;;;23.80;90.20;;;;;;3525579;40;20555;-66
2021/07/02 03:02:50;;;;;;;12.30;11.60;;;23.80;90.50;;;;;;3524925;40;20480;-67
2021/07/02 03:05:18;;;;;;;12.73;11.83;;;23.90;90.20;;;;;;3525160;40;20555;-67
2021/07/02 03:07:46;;;;;;;12.53;11.83;;;23.90;90.30;;;;;;3525960;40;20476;-66
2021/07/02 03:10:16;;;;;;;13.60;12.80;;;23.90;90.20;;;;;;3525053;40;20498;-67
2021/07/02 03:12:44;;;;;;;13.27;12.47;;;23.90;90.20;;;;;;3523440;40;20472;-67
2021/07/02 03:15:14;;;;;;;13.97;13.07;;;23.90;90.20;;;;;;3525984;40;20475;-67
2021/07/02 03:17:43;;;;;;;13.53;12.73;;;23.80;90.20;;;;;;3525695;40;20910;-66
2021/07/02 03:20:13;;;;;;;14.60;13.70;;;23.80;90.20;;;;;;3525610;40;20559;-67
2021/07/02 03:22:42;;;;;;;14.60;13.70;;;23.80;90.20;;;;;;3524156;40;20478;-67
2021/07/02 03:25:10;;;;;;;13.80;13.10;;;23.80;90.20;;;;;;3524069;40;20472;-67
2021/07/02 03:27:38;;;;;;;14.70;13.70;;;23.80;90.20;;;;;;3525959;40;20459;-66
2021/07/02 03:30:09;;;;;;;14.20;13.30;;;23.80;90.20;;;;;;3525634;40;20474;-66
2021/07/02 03:32:38;;;;;;;13.17;12.47;;;23.80;90.20;;;;;;3524589;40;21093;-67
2021/07/02 03:35:08;;;;;;;13.83;13.13;;;23.80;90.20;;;;;;3524763;40;20570;-66
2021/07/02 03:37:37;;;;;;;13.67;12.90;;;23.80;90.10;;;;;;3516246;40;20464;-66
2021/07/02 03:40:09;;;;;;;13.30;12.40;;;23.80;90.10;;;;;;3524750;40;20463;-66
2021/07/02 03:42:55;;;;;;;13.50;12.83;;;23.80;90.10;;;;;;3527234;40;20501;-66
2021/07/02 03:45:24;;;;;;;13.40;12.63;;;23.80;90.20;;;;;;3525684;40;20494;-66
2021/07/02 03:47:51;;;;;;;14.23;13.30;;;23.80;90.20;;;;;;3533468;40;20811;-66
2021/07/02 03:50:18;;;;;;;13.10;12.50;;;23.80;90.10;;;;;;3525713;40;20576;-67
2021/07/02 03:52:47;;;;;;;14.20;13.40;;;23.80;90.10;;;;;;3534319;40;20482;-66
2021/07/02 03:55:14;;;;;;;13.90;13.00;;;23.80;90.20;;;;;;3532802;40;20474;-66
2021/07/02 03:57:42;;;;;;;14.00;13.07;;;23.80;90.20;;;;;;3533575;40;20871;-66
2021/07/02 04:00:10;;;;;;;13.17;12.47;;;23.80;90.20;;;;;;3534520;40;20550;-67
2021/07/02 04:02:44;;;;;;;13.77;12.90;;;23.80;90.20;;;;;;3533897;40;20478;-66
2021/07/02 04:05:12;;;;;;;13.63;12.93;;;23.80;90.10;;;;;;3534494;40;21077;-67
2021/07/02 04:07:39;;;;;;;13.90;13.10;;;23.80;90.10;;;;;;3534272;40;20478;-66
2021/07/02 04:10:09;;;;;;;14.57;13.50;;;23.80;90.10;;;;;;3533592;40;20467;-66
2021/07/02 04:12:36;;;;;;;13.93;13.30;;;23.80;90.10;;;;;;3534522;40;20556;-66
2021/07/02 04:15:05;;;;;;;14.90;14.20;;;23.80;90.00;;;;;;3535394;40;20467;-66
2021/07/02 04:17:32;;;;;;;14.23;13.50;;;23.80;90.40;;;;;;3534780;40;20470;-66
2021/07/02 04:19:59;;;;;;;14.93;14.13;;;23.80;90.00;;;;;;3535132;40;20489;-66
2021/07/02 04:22:26;;;;;;;14.90;14.00;;;23.80;90.00;;;;;;3534632;40;20543;-67
2021/07/02 04:24:53;;;;;;;14.90;14.10;;;23.80;90.10;;;;;;3534261;40;20466;-66
2021/07/02 04:27:22;;;;;;;14.60;13.87;;;23.80;90.10;;;;;;3533002;40;20459;-66
2021/07/02 04:29:50;;;;;;;14.00;13.40;;;23.80;90.10;;;;;;3532530;40;21021;-67
2021/07/02 04:32:17;;;;;;;15.37;14.10;;;23.80;90.10;;;;;;3532780;40;20546;-67
2021/07/02 04:34:44;;;;;;;15.30;14.53;;;23.80;90.00;;;;;;3532999;40;20526;-66
2021/07/02 04:37:11;;;;;;;15.37;14.67;;;23.80;90.00;;;;;;3533095;40;20485;-66
2021/07/02 04:39:39;;;;;;;15.20;14.40;;;23.80;90.00;;;;;;3533283;40;20479;-66
2021/07/02 04:42:06;;;;;;;14.83;14.10;;;23.80;90.00;;;;;;3532621;40;20463;-66
2021/07/02 04:44:36;;;;;;;15.20;14.40;;;23.80;90.00;;;;;;3523476;40;20492;-66
2021/07/02 04:47:03;;;;;;;15.10;14.23;;;23.80;90.00;;;;;;3532339;40;20490;-67
2021/07/02 04:49:31;;;;;;;14.37;13.57;;;23.80;90.00;;;;;;3532219;40;20565;-66
2021/07/02 04:51:58;;;;;;;15.70;14.80;;;23.80;90.00;;;;;;3532325;40;20478;-66
2021/07/02 04:54:26;;;;;;;14.63;13.90;;;23.80;90.00;;;;;;3531734;40;21050;-66
2021/07/02 04:56:53;;;;;;;15.63;14.73;;;23.80;90.00;;;;;;3531456;40;20462;-66
2021/07/02 04:59:26;;;;;;;15.67;14.87;;;23.80;90.00;;;;;;3528863;40;21126;-66
2021/07/02 05:01:55;;;;;;;14.67;13.93;;;23.80;90.00;;;;;;3529459;40;20604;-66
2021/07/02 05:04:22;;;;;;;14.77;13.97;;;23.80;89.90;;;;;;3530865;40;20474;-66
2021/07/02 05:06:49;;;;;;;14.97;14.17;;;23.80;89.90;;;;;;3530967;40;20568;-67
2021/07/02 05:09:16;;;;;;;14.67;13.77;;;23.80;90.00;;;;;;3530505;40;20459;-66
2021/07/02 05:11:44;;;;;;;15.83;14.83;;;23.80;90.00;;;;;;3529799;40;20479;-66
2021/07/02 05:14:11;;;;;;;15.60;14.73;;;23.80;90.00;;;;;;3528400;40;20482;-66
2021/07/02 05:16:38;;;;;;;15.10;14.20;;;23.80;90.00;;;;;;3529120;40;20474;-66
2021/07/02 05:19:07;;;;;;;15.47;14.67;;;23.80;90.00;;;;;;3520724;40;20822;-66
2021/07/02 05:21:34;;;;;;;15.87;15.07;;;23.80;90.10;;;;;;3525338;40;21119;-66
2021/07/02 05:24:01;;;;;;;15.50;14.70;;;23.80;90.20;;;;;;3526156;40;20549;-66
2021/07/02 05:26:28;;;;;;;15.50;14.60;;;23.80;90.20;;;;;;3526282;40;20494;-66
2021/07/02 05:28:56;;;;;;;15.40;14.60;;;23.80;90.20;;;;;;3525903;40;20521;-66
2021/07/02 05:31:23;;;;;;;15.90;14.90;;;23.80;90.20;;;;;;3523692;40;20467;-66
2021/07/02 05:33:50;;;;;;;16.60;15.50;;;23.80;90.20;;;;;;3523419;40;20683;-65
2021/07/02 05:36:19;;;;;;;16.43;15.33;;;23.60;89.70;;;;;;3521830;40;21272;-65
2021/07/02 05:38:47;;;;;;;16.77;15.43;;;23.10;90.20;;;;;;3525009;40;21143;-65
2021/07/02 05:41:15;;;;;;;16.60;15.50;;;22.60;90.80;;;;;;3523211;40;20478;-65
2021/07/02 05:43:43;;;;;;;15.57;14.63;;;22.20;91.20;;;;;;3518977;40;20507;-65
2021/07/02 05:46:12;;;;;;;15.90;14.90;;;21.90;91.90;;;;;;3510453;40;20610;-65
2021/07/02 05:48:40;;;;;;;16.13;14.87;;;21.70;92.10;;;;;;3503449;40;20499;-65
2021/07/02 05:51:08;;;;;;;15.67;14.77;;;21.70;92.30;;;;;;3507724;40;20484;-65
2021/07/02 05:53:37;;;;;;;15.40;14.60;;;21.50;92.60;;;;;;3512882;40;20498;-65
2021/07/02 05:56:05;;;;;;;15.97;15.07;;;21.50;92.80;;;;;;3500532;40;20585;-66
2021/07/02 05:58:33;;;;;;;15.90;14.70;;;21.40;92.80;;;;;;3510337;40;20804;-66
2021/07/02 06:01:00;;;;;;;16.50;15.30;;;21.40;93.00;;;;;;3506809;40;20827;-66
2021/07/02 06:03:28;;;;;;;15.77;14.87;;;21.50;93.00;;;;;;3507869;40;20602;-62
2021/07/02 06:05:56;;;;;;;16.43;15.03;;;21.50;93.00;;;;;;3510723;40;20582;-62
2021/07/02 06:08:24;;;;;;;15.40;14.60;;;21.50;93.00;;;;;;3507847;40;20486;-61
2021/07/02 06:11:04;;;;;;;16.50;15.60;;;21.60;93.00;;;;;;3513547;40;21143;-62
2021/07/02 06:13:32;;;;;;;16.00;15.07;;;21.50;92.90;;;;;;3513183;40;20562;-62
2021/07/02 06:16:00;;;;;;;16.73;15.73;;;21.50;93.10;;;;;;3515505;40;20534;-61
2021/07/02 06:18:28;;;;;;;16.53;15.63;;;21.60;93.00;;;;;;3520339;40;21037;-63
2021/07/02 06:20:56;;;;;;;16.93;15.93;;;21.60;92.60;;;;;;3518024;40;20581;-61
2021/07/02 06:23:24;;;;;;;15.43;14.50;;;21.60;92.80;;;;;;3519536;40;20845;-61
2021/07/02 06:25:52;;;;;;;15.60;14.60;;;21.70;92.70;;;;;;3519356;40;20494;-62
2021/07/02 06:28:21;;;;;;;15.83;14.93;;;21.60;92.90;;;;;;3519783;40;20482;-61
2021/07/02 06:30:50;;;;;;;15.03;14.07;;;21.60;92.90;;;;;;3519443;40;20475;-61
2021/07/02 06:33:17;;;;;;;14.80;14.00;;;21.60;93.00;;;;;;3516581;40;20731;-61
2021/07/02 06:35:44;;;;;;;15.40;14.50;;;21.60;92.90;;;;;;3508922;40;20591;-62
2021/07/02 06:38:13;;;;;;;15.37;14.47;;;21.60;93.30;;;;;;3508799;40;20960;-61
2021/07/02 06:40:41;;;;;;;15.20;14.30;;;21.60;93.60;;;;;;3508496;40;20482;-60
2021/07/02 06:43:09;;;;;;;15.27;14.47;;;21.70;93.50;;;;;;3508996;40;21035;-62
2021/07/02 06:45:38;;;;;;;15.13;14.13;;;21.70;93.20;;;;;;3508248;40;20700;-60
2021/07/02 06:48:10;;;;;;;14.90;14.10;;;21.60;92.90;;;;;;3505847;40;20918;-62
2021/07/02 06:50:40;;;;;;;16.20;15.30;;;21.60;93.30;;;;;;3506705;40;21207;-62
2021/07/02 06:53:07;;;;;;;15.73;14.77;;;21.80;93.40;;;;;;3508161;40;20475;-61
2021/07/02 06:55:37;;;;;;;15.00;14.10;;;21.90;93.20;;;;;;3506496;40;20475;-61
2021/07/02 06:58:04;;;;;;;15.53;14.40;;;21.90;92.80;;;;;;3505046;40;20503;-61
2021/07/02 07:00:32;;;;;;;14.30;13.50;;;21.90;93.00;;;;;;3512646;40;21223;-61
2021/07/02 07:03:03;;;;;;;14.77;13.93;;;21.90;93.30;;;;;;3516897;40;20806;-61
2021/07/02 07:05:32;;;;;;;14.37;13.50;;;22.00;93.30;;;;;;3516372;40;21253;-61
2021/07/02 07:07:59;;;;;;;15.50;14.50;;;22.00;93.50;;;;;;3512496;40;20491;-61
2021/07/02 07:10:30;;;;;;;14.70;13.50;;;22.10;93.60;;;;;;3505782;40;20460;-61
2021/07/02 07:12:58;;;;;;;14.67;13.77;;;22.20;93.50;;;;;;3508325;40;20687;-60
2021/07/02 07:15:26;;;;;;;15.23;14.33;;;22.20;93.40;;;;;;3513817;40;20530;-61
2021/07/02 07:17:55;;;;;;;14.73;13.83;;;22.40;93.10;;;;;;3514403;40;20486;-61
2021/07/02 07:20:24;;;;;;;14.83;14.03;;;22.50;92.80;;;;;;3514894;40;20479;-61
2021/07/02 07:22:52;;;;;;;16.33;14.87;;;22.60;92.60;;;;;;3515655;40;20489;-61
2021/07/02 07:25:21;;;;;;;15.40;14.33;;;22.60;92.60;;;;;;3514729;40;20510;-62
2021/07/02 07:27:49;;;;;;;14.47;13.57;;;22.70;92.50;;;;;;3516446;40;20486;-61
2021/07/02 07:30:19;;;;;;;14.70;13.80;;;22.80;92.20;;;;;;3513684;40;20519;-61
2021/07/02 07:32:52;;;;;;;15.33;14.43;;;22.80;92.10;;;;;;3514103;40;20494;-62
2021/07/02 07:35:27;;;;;;;14.73;13.83;;;22.90;92.10;;;;;;3514911;40;20482;-61
2021/07/02 07:37:57;;;;;;;15.43;14.60;;;22.90;92.50;;;;;;3512020;40;20500;-61
2021/07/02 07:40:28;;;;;;;15.53;14.63;;;23.00;92.00;;;;;;3511327;40;21240;-61
2021/07/02 07:42:56;;;;;;;15.50;14.50;;;23.10;91.70;;;;;;3515227;40;20561;-61
2021/07/02 07:45:25;;;;;;;14.87;14.07;;;23.10;91.40;;;;;;3516318;40;20569;-62
2021/07/02 07:47:52;;;;;;;16.13;14.77;;;23.20;91.40;;;;;;3514132;40;20575;-62
2021/07/02 07:50:25;;;;;;;15.17;14.30;;;23.20;91.50;;;;;;3516156;40;21031;-61
2021/07/02 07:52:58;;;;;;;15.80;14.90;;;23.20;91.40;;;;;;3513306;40;20534;-62
2021/07/02 07:55:28;;;;;;;16.10;15.10;;;23.20;91.20;;;;;;3515522;40;20539;-61
2021/07/02 07:58:00;;;;;;;14.70;13.90;;;23.30;91.20;;;;;;3513255;40;20479;-62
2021/07/02 08:00:29;;;;;;;15.50;14.50;;;23.30;91.20;;;;;;3513934;40;20474;-62
2021/07/02 08:02:56;;;;;;;14.80;13.80;;;23.40;91.20;;;;;;3514296;40;20513;-62
2021/07/02 08:05:24;;;;;;;14.77;13.87;;;23.40;91.00;;;;;;3505884;40;20521;-62
2021/07/02 08:07:51;;;;;;;15.53;14.63;;;23.30;90.90;;;;;;3504307;40;20501;-62
2021/07/02 08:10:21;;;;;;;16.50;15.60;;;23.30;90.50;;;;;;3502072;40;20486;-61
2021/07/02 08:12:52;;;;;;;16.17;15.27;;;23.30;90.80;;;;;;3496909;40;20497;-61
2021/07/02 08:15:20;;;;;;;14.33;13.63;;;23.30;90.50;;;;;;3507694;40;20484;-61
2021/07/02 08:17:48;;;;;;;16.40;15.40;;;23.40;90.40;;;;;;3507829;40;21204;-61
2021/07/02 08:20:16;;;;;;;16.47;15.57;;;23.40;90.20;;;;;;3504097;40;20830;-65
2021/07/02 08:22:44;;;;;;;15.80;15.00;;;23.50;90.30;;;;;;3504544;40;20493;-65
2021/07/02 08:25:12;;;;;;;16.27;15.27;;;23.50;90.10;;;;;;3502673;40;20491;-65
2021/07/02 08:30:27;;;;;;;15.67;14.77;;;23.50;90.00;;;;;;3504478;40;20527;-65
2021/07/02 08:32:54;;;;;;;15.83;15.03;;;23.60;89.90;;;;;;3502230;40;20780;-65
2021/07/02 08:35:23;;;;;;;15.00;14.23;;;23.60;90.10;;;;;;3501528;40;20581;-65
2021/07/02 08:37:52;;;;;;;14.63;13.90;;;23.60;90.00;;;;;;3490478;40;21590;-65
2021/07/02 08:40:21;;;;;;;15.10;14.27;;;23.60;89.30;;;;;;3496253;40;20749;-66
2021/07/02 08:42:49;;;;;;;16.00;14.90;;;23.60;89.00;;;;;;3499098;40;20559;-66
2021/07/02 08:45:17;;;;;;;14.37;13.67;;;23.60;89.00;;;;;;3501012;40;20508;-66
2021/07/02 08:47:45;;;;;;;15.53;14.73;;;23.60;87.70;;;;;;3495020;40;20780;-66
2021/07/02 08:50:14;;;;;;;15.57;14.67;;;23.60;88.30;;;;;;3493510;40;20495;-66
2021/07/02 08:52:41;;;;;;;15.60;14.67;;;23.60;88.70;;;;;;3497904;40;20495;-66
2021/07/02 08:55:12;;;;;;;15.30;14.40;;;23.60;87.50;;;;;;3502778;40;20506;-66
2021/07/02 08:57:39;;;;;;;16.60;15.70;;;23.50;87.30;;;;;;3509584;40;20482;-66
2021/07/02 09:00:09;;;;;;;15.70;14.80;;;23.50;88.10;;;;;;3508613;40;21232;-65
2021/07/02 09:02:39;;;;;;;15.70;14.80;;;23.50;88.30;;;;;;3509754;40;20576;-65
2021/07/02 09:05:30;;;;;;;14.87;13.97;;;23.50;88.20;;;;;;3510718;40;20478;-65
2021/07/02 09:07:58;;;;;;;14.90;14.00;;;23.50;88.20;;;;;;3513630;40;20573;-65
2021/07/02 09:10:33;;;;;;;15.20;14.30;;;23.50;87.90;;;;;;3503012;40;20501;-66
2021/07/02 09:13:02;;;;;;;14.60;13.80;;;23.30;88.20;;;;;;3511982;40;20477;-65
2021/07/02 09:15:29;;;;;;;15.27;14.37;;;23.30;88.60;;;;;;3511310;40;20529;-66
2021/07/02 09:17:58;;;;;;;14.53;13.83;;;23.30;88.50;;;;;;3505575;40;20486;-66
2021/07/02 09:20:29;;;;;;;15.00;14.20;;;23.30;88.60;;;;;;3512556;40;20518;-65
2021/07/02 09:22:58;;;;;;;14.43;13.73;;;23.30;88.00;;;;;;3508827;40;20545;-66
2021/07/02 09:25:33;;;;;;;14.10;13.40;;;23.20;87.00;;;;;;3505391;40;20486;-66
2021/07/02 09:28:05;;;;;;;13.80;13.10;;;23.10;87.00;;;;;;3515378;40;20528;-66
2021/07/02 09:30:35;;;;;;;14.23;13.43;;;23.00;86.90;;;;;;3510054;40;20494;-66
2021/07/02 09:33:07;;;;;;;14.37;13.67;;;23.00;87.80;;;;;;3510043;40;20503;-66
2021/07/02 09:35:47;;;;;;;15.93;15.03;;;23.00;88.00;;;;;;3514313;40;20475;-66
2021/07/02 09:38:16;;;;;;;15.10;14.30;;;23.10;88.10;;;;;;3505006;40;20866;-65
2021/07/02 09:40:45;;;;;;;14.97;14.17;;;23.20;88.30;;;;;;3515220;40;21261;-65
2021/07/02 09:43:15;;;;;;;16.17;14.87;;;23.30;88.10;;;;;;3505463;40;21203;-64
2021/07/02 09:45:48;;;;;;;15.33;14.10;;;23.30;87.90;;;;;;3505524;40;20498;-64
2021/07/02 09:48:30;;;;;;;15.10;14.30;;;23.40;88.00;;;;;;3503326;40;20491;-64
2021/07/02 09:51:02;;;;;;;15.70;14.80;;;23.40;87.90;;;;;;3501702;40;20463;-63
2021/07/02 09:53:33;;;;;;;15.47;14.57;;;23.50;88.10;;;;;;3507021;40;20932;-63
2021/07/02 09:56:04;;;;;;;16.60;15.70;;;23.50;88.10;;;;;;3505344;40;20480;-63
2021/07/02 09:58:36;;;;;;;15.17;14.27;;;23.50;88.10;;;;;;3498182;40;20838;-63
2021/07/02 10:01:05;;;;;;;16.23;15.13;;;23.50;88.10;;;;;;3502886;40;20456;-63
2021/07/02 10:03:36;;;;;;;16.20;15.30;;;23.50;87.90;;;;;;3504741;40;20508;-63
2021/07/02 10:06:07;;;;;;;16.20;15.20;;;23.50;87.90;;;;;;3497716;40;20503;-65
2021/07/02 10:08:36;;;;;;;16.77;15.67;;;23.60;88.00;;;;;;3511567;40;20466;-65
2021/07/02 10:11:17;;;;;;;15.53;14.70;;;23.60;88.00;;;;;;3507733;40;20478;-65
2021/07/02 10:13:48;;;;;;;16.03;15.13;;;23.60;88.00;;;;;;3495339;40;20565;-65
2021/07/02 10:16:17;;;;;;;17.60;16.43;;;23.60;88.10;;;;;;3497840;40;20840;-65
2021/07/02 10:18:47;;;;;;;16.13;15.30;;;23.60;88.10;;;;;;3505833;40;20479;-62
2021/07/02 10:21:23;;;;;;;17.53;16.53;;;23.60;88.00;;;;;;3510599;40;20482;-62
2021/07/02 10:23:54;;;;;;;17.63;16.63;;;23.60;88.00;;;;;;3495538;40;20456;-62
2021/07/02 10:26:23;;;;;;;17.20;16.10;;;23.60;87.90;;;;;;3503795;40;20468;-62
2021/07/02 10:28:53;;;;;;;17.97;16.87;;;23.60;87.80;;;;;;3509921;40;20818;-62
2021/07/02 10:31:24;;;;;;;17.70;16.60;;;23.70;87.90;;;;;;3511155;40;20787;-62
2021/07/02 10:33:57;;;;;;;17.67;16.37;;;23.70;87.80;;;;;;3510921;40;21333;-62
2021/07/02 10:36:33;;;;;;;16.80;15.80;;;23.70;87.80;;;;;;3514138;40;20490;-63
2021/07/02 10:39:01;;;;;;;16.30;15.47;;;23.70;87.50;;;;;;3514343;40;21220;-65
2021/07/02 10:41:31;;;;;;;15.97;14.97;;;23.70;87.40;;;;;;3514121;40;20471;-65
2021/07/02 10:44:05;;;;;;;15.50;14.53;;;23.70;86.50;;;;;;3515273;40;20467;-64
2021/07/02 10:46:35;;;;;;;15.80;14.60;;;23.70;84.60;;;;;;3509615;40;21177;-64
2021/07/02 10:49:06;;;;;;;15.97;14.97;;;23.70;85.00;;;;;;3504183;40;20522;-64
2021/07/02 10:51:49;;;;;;;16.50;15.40;;;23.70;85.20;;;;;;3499498;40;20485;-63
2021/07/02 10:54:37;;;;;;;16.67;15.57;;;23.70;85.50;;;;;;3503073;40;20490;-63
2021/07/02 10:57:15;;;;;;;17.77;16.63;;;23.70;85.70;;;;;;3493617;40;20557;-63
2021/07/02 11:00:02;;;;;;;17.33;16.33;;;23.70;86.00;;;;;;3495945;40;21251;-63
2021/07/02 11:02:30;;;;;;;18.10;16.90;;;23.70;86.30;;;;;;3507132;40;21242;-64
2021/07/02 11:04:58;;;;;;;17.83;16.63;;;23.70;86.30;;;;;;3504461;40;20574;-63
2021/07/02 11:07:44;;;;;;;17.33;16.10;;;23.70;86.40;;;;;;3503803;40;20682;-65
2021/07/02 11:10:13;;;;;;;16.10;15.20;;;23.70;86.50;;;;;;3504417;40;20562;-65
2021/07/02 11:13:11;;;;;;;17.53;16.43;;;23.70;86.60;;;;;;3505514;40;20475;-65
2021/07/02 11:15:39;;;;;;;17.63;16.23;;;23.70;86.70;;;;;;3465431;41;20536;-65
2021/07/02 11:18:17;;;;;;;16.13;15.13;;;23.70;86.70;;;;;;3463181;41;20467;-65
2021/07/02 11:20:47;;;;;;;16.47;15.27;;;23.80;86.90;;;;;;3466427;41;20497;-65
2021/07/02 11:23:23;;;;;;;16.60;15.60;;;23.70;86.80;;;;;;3455939;41;20496;-65
2021/07/02 11:26:01;;;;;;;17.30;16.10;;;23.80;86.90;;;;;;3458185;41;20482;-65
2021/07/02 11:28:54;;;;;;;17.40;16.30;;;23.80;87.00;;;;;;3460932;41;20491;-65
2021/07/02 11:31:36;;;;;;;18.03;16.93;;;23.80;87.20;;;;;;3503368;40;20564;-64
2021/07/02 11:34:17;;;;;;;17.83;16.83;;;23.80;87.20;;;;;;3419078;40;20516;-64
2021/07/02 11:37:11;;;;;;;19.77;18.03;;;23.80;87.30;;;;;;3507508;40;20479;-65
2021/07/02 11:39:40;;;;;;;17.67;16.57;;;23.80;87.30;;;;;;3508106;40;20491;-64
2021/07/02 11:42:12;;;;;;;20.90;19.40;;;23.80;87.30;;;;;;3507990;40;20479;-64
2021/07/02 11:44:40;;;;;;;18.17;16.93;;;23.80;87.40;;;;;;3500464;40;20495;-65
2021/07/02 11:47:07;;;;;;;17.67;16.67;;;23.80;87.40;;;;;;3505699;40;20484;-65
2021/07/02 11:49:50;;;;;;;18.33;17.30;;;23.80;87.40;;;;;;3458599;40;20979;-65
2021/07/02 11:52:19;;;;;;;18.53;17.43;;;23.80;87.40;;;;;;3507024;40;20467;-65
2021/07/02 11:54:52;;;;;;;17.60;16.67;;;23.80;87.30;;;;;;3503032;40;20648;-63
2021/07/02 11:57:25;;;;;;;18.60;17.20;;;23.80;87.30;;;;;;3506442;40;20475;-65
2021/07/02 12:00:06;;;;;;;17.80;16.63;;;23.80;87.20;;;;;;3503735;40;20837;-64
2021/07/02 12:02:54;;;;;;;19.87;18.67;;;23.80;87.20;;;;;;3430452;40;20480;-65
2021/07/02 12:05:22;;;;;;;18.20;17.10;;;23.80;87.10;;;;;;3493555;40;20484;-64
2021/07/02 12:07:49;;;;;;;18.50;17.40;;;23.80;87.10;;;;;;3494617;40;20533;-63
2021/07/02 12:10:19;;;;;;;18.70;17.50;;;23.80;87.10;;;;;;3496475;40;20635;-63
2021/07/02 12:12:47;;;;;;;17.47;16.47;;;23.80;87.00;;;;;;3496922;40;20528;-62
2021/07/02 12:15:25;;;;;;;18.40;16.47;;;23.80;87.00;;;;;;3496874;40;20460;-62
2021/07/02 12:18:04;;;;;;;18.60;17.07;;;23.80;87.10;;;;;;3491963;40;20495;-62
2021/07/02 12:20:32;;;;;;;17.83;16.73;;;23.80;87.10;;;;;;3498246;40;20495;-62
2021/07/02 12:23:06;;;;;;;18.60;17.40;;;23.80;87.00;;;;;;3498596;40;20736;-62
2021/07/02 12:25:34;;;;;;;17.33;16.33;;;23.80;87.10;;;;;;3499961;40;20475;-62
2021/07/02 12:28:03;;;;;;;17.60;16.60;;;23.80;87.10;;;;;;3500343;40;20488;-65
2021/07/02 12:30:30;;;;;;;18.97;17.80;;;23.80;87.10;;;;;;3499953;40;21238;-65
2021/07/02 12:32:58;;;;;;;19.40;17.80;;;23.80;87.20;;;;;;3501183;40;21177;-66
2021/07/02 12:35:25;;;;;;;18.20;17.10;;;23.80;87.10;;;;;;3509336;40;20519;-65
2021/07/02 12:37:53;;;;;;;18.80;17.70;;;23.80;87.10;;;;;;3512121;40;20552;-66
2021/07/02 12:40:20;;;;;;;18.40;17.20;;;23.80;87.10;;;;;;3512647;40;20594;-65
2021/07/02 12:42:50;;;;;;;17.73;16.63;;;23.80;87.20;;;;;;3512046;40;20721;-65
2021/07/02 12:45:18;;;;;;;18.80;17.60;;;23.80;87.20;;;;;;3520075;40;20470;-65